sensor_id;sensor_type;location;lat;lon;timestamp;pressure;altitude;pressure_sealevel;temperature;humidity
39793;BME280;26080;42.264;24.536;2023-05-10T00:00:39;99760.16;;;9.98;100.00
39793;BME280;26080;42.264;24.536;2023-05-10T00:03:04;99760.28;;;9.95;100.00
39793;BME280;26080;42.264;24.536;2023-05-10T00:05:31;99734.81;;;9.76;100.00
39793;BME280;26080;42.264;24.536;2023-05-10T00:07:56;99757.00;;;9.90;100.00
39793;BME280;26080;42.264;24.536;2023-05-10T00:10:22;99764.00;;;9.89;100.00
39793;BME280;26080;42.264;24.536;2023-05-10T00:12:47;99755.38;;;9.86;100.00
39793;BME280;26080;42.264;24.536;2023-05-10T00:15:13;99759.03;;;9.82;100.00
39793;BME280;26080;42.264;24.536;2023-05-10T00:17:38;99755.63;;;9.79;100.00
39793;BME280;26080;42.264;24.536;2023-05-10T00:20:04;99749.66;;;9.76;100.00
39793;BME280;26080;42.264;24.536;2023-05-10T00:22:30;99750.50;;;9.76;100.00
39793;BME280;26080;42.264;24.536;2023-05-10T00:24:57;99762.78;;;9.74;100.00
39793;BME280;26080;42.264;24.536;2023-05-10T00:27:22;99732.00;;;9.58;100.00
39793;BME280;26080;42.264;24.536;2023-05-10T00:29:48;99756.91;;;9.68;100.00
39793;BME280;26080;42.264;24.536;2023-05-10T00:32:13;99758.56;;;9.70;100.00
39793;BME280;26080;42.264;24.536;2023-05-10T00:34:39;99758.56;;;9.70;100.00
39793;BME280;26080;42.264;24.536;2023-05-10T00:37:04;99757.59;;;9.73;100.00
39793;BME280;26080;42.264;24.536;2023-05-10T00:39:30;99733.75;;;9.57;100.00
39793;BME280;26080;42.264;24.536;2023-05-10T00:41:56;99754.34;;;9.66;100.00
39793;BME280;26080;42.264;24.536;2023-05-10T00:44:21;99761.53;;;9.61;100.00
39793;BME280;26080;42.264;24.536;2023-05-10T00:46:47;99746.28;;;9.49;100.00
39793;BME280;26080;42.264;24.536;2023-05-10T00:49:13;99755.59;;;9.56;100.00
39793;BME280;26080;42.264;24.536;2023-05-10T00:51:39;99751.28;;;9.55;100.00
39793;BME280;26080;42.264;24.536;2023-05-10T00:54:04;99754.19;;;9.47;100.00
39793;BME280;26080;42.264;24.536;2023-05-10T00:56:30;99749.94;;;9.43;100.00
39793;BME280;26080;42.264;24.536;2023-05-10T00:58:56;99754.38;;;9.41;100.00
39793;BME280;26080;42.264;24.536;2023-05-10T01:01:22;99751.03;;;9.38;100.00
39793;BME280;26080;42.264;24.536;2023-05-10T01:03:48;99743.50;;;9.29;100.00
39793;BME280;26080;42.264;24.536;2023-05-10T01:06:13;99758.31;;;9.28;100.00
39793;BME280;26080;42.264;24.536;2023-05-10T01:08:39;99758.44;;;9.25;100.00
39793;BME280;26080;42.264;24.536;2023-05-10T01:11:04;99756.00;;;9.20;100.00
39793;BME280;26080;42.264;24.536;2023-05-10T01:13:33;99762.81;;;9.25;100.00
39793;BME280;26080;42.264;24.536;2023-05-10T01:15:59;99761.09;;;9.24;100.00
39793;BME280;26080;42.264;24.536;2023-05-10T01:18:28;99752.34;;;9.25;100.00
39793;BME280;26080;42.264;24.536;2023-05-10T01:21:06;99754.06;;;9.26;100.00
39793;BME280;26080;42.264;24.536;2023-05-10T01:32:24;99757.59;;;9.25;100.00
39793;BME280;26080;42.264;24.536;2023-05-10T01:34:54;99752.34;;;9.25;100.00
39793;BME280;26080;42.264;24.536;2023-05-10T01:37:33;99756.69;;;9.26;100.00
39793;BME280;26080;42.264;24.536;2023-05-10T01:40:19;99758.38;;;9.27;100.00
39793;BME280;26080;42.264;24.536;2023-05-10T01:43:00;99756.72;;;9.24;100.00
39793;BME280;26080;42.264;24.536;2023-05-10T01:45:50;99752.47;;;9.22;100.00
39793;BME280;26080;42.264;24.536;2023-05-10T01:48:21;99756.06;;;9.17;100.00
39793;BME280;26080;42.264;24.536;2023-05-10T01:50:48;99757.03;;;9.15;100.00
39793;BME280;26080;42.264;24.536;2023-05-10T01:53:18;99735.81;;;8.99;100.00
39793;BME280;26080;42.264;24.536;2023-05-10T01:55:48;99754.47;;;9.13;100.00
39793;BME280;26080;42.264;24.536;2023-05-10T01:58:19;99761.31;;;9.17;100.00
39793;BME280;26080;42.264;24.536;2023-05-10T02:00:47;99760.50;;;9.15;100.00
39793;BME280;26080;42.264;24.536;2023-05-10T02:03:14;99735.13;;;8.94;100.00
39793;BME280;26080;42.264;24.536;2023-05-10T02:05:43;99768.50;;;9.11;100.00
39793;BME280;26080;42.264;24.536;2023-05-10T02:08:10;99762.53;;;9.07;100.00
39793;BME280;26080;42.264;24.536;2023-05-10T02:10:37;99746.47;;;8.93;100.00
39793;BME280;26080;42.264;24.536;2023-05-10T02:13:05;99764.34;;;9.05;100.00
39793;BME280;26080;42.264;24.536;2023-05-10T02:15:32;99766.00;;;9.08;100.00
39793;BME280;26080;42.264;24.536;2023-05-10T02:17:59;99759.03;;;9.08;100.00
39793;BME280;26080;42.264;24.536;2023-05-10T02:20:26;99759.94;;;9.07;100.00
39793;BME280;26080;42.264;24.536;2023-05-10T02:22:54;99761.53;;;9.11;100.00
39793;BME280;26080;42.264;24.536;2023-05-10T02:25:22;99764.94;;;9.13;100.00
39793;BME280;26080;42.264;24.536;2023-05-10T02:27:48;99741.25;;;8.93;100.00
39793;BME280;26080;42.264;24.536;2023-05-10T02:30:15;99729.09;;;8.92;100.00
39793;BME280;26080;42.264;24.536;2023-05-10T02:32:41;99761.53;;;9.11;100.00
39793;BME280;26080;42.264;24.536;2023-05-10T02:35:08;99772.81;;;9.12;100.00
39793;BME280;26080;42.264;24.536;2023-05-10T02:37:36;99759.94;;;9.07;100.00
39793;BME280;26080;42.264;24.536;2023-05-10T02:40:03;99765.97;;;9.09;100.00
39793;BME280;26080;42.264;24.536;2023-05-10T02:42:31;99770.16;;;9.13;100.00
39793;BME280;26080;42.264;24.536;2023-05-10T02:45:01;99758.84;;;9.13;100.00
39793;BME280;26080;42.264;24.536;2023-05-10T02:47:28;99765.97;;;9.09;100.00
39793;BME280;26080;42.264;24.536;2023-05-10T02:49:54;99766.88;;;9.08;100.00
39793;BME280;26080;42.264;24.536;2023-05-10T02:52:23;99764.25;;;9.08;100.00
39793;BME280;26080;42.264;24.536;2023-05-10T02:54:51;99765.16;;;9.07;100.00
39793;BME280;26080;42.264;24.536;2023-05-10T02:57:26;99758.47;;;8.99;100.00
39793;BME280;26080;42.264;24.536;2023-05-10T02:59:52;99777.50;;;9.02;100.00
39793;BME280;26080;42.264;24.536;2023-05-10T03:02:18;99766.25;;;9.00;100.00
39793;BME280;26080;42.264;24.536;2023-05-10T03:04:43;99768.13;;;8.97;100.00
39793;BME280;26080;42.264;24.536;2023-05-10T03:07:09;99775.97;;;8.97;100.00
39793;BME280;26080;42.264;24.536;2023-05-10T03:09:35;99777.81;;;8.93;100.00
39793;BME280;26080;42.264;24.536;2023-05-10T03:12:08;99772.53;;;8.95;100.00
39793;BME280;26080;42.264;24.536;2023-05-10T03:17:35;99772.59;;;8.93;100.00
39793;BME280;26080;42.264;24.536;2023-05-10T03:20:34;99771.03;;;8.87;100.00
39793;BME280;26080;42.264;24.536;2023-05-10T03:23:27;99770.16;;;8.87;100.00
39793;BME280;26080;42.264;24.536;2023-05-10T03:25:55;99772.72;;;8.88;100.00
39793;BME280;26080;42.264;24.536;2023-05-10T03:28:21;99774.50;;;8.88;100.00
39793;BME280;26080;42.264;24.536;2023-05-10T03:30:47;99770.13;;;8.88;100.00
39793;BME280;26080;42.264;24.536;2023-05-10T03:33:12;99773.53;;;8.90;100.00
39793;BME280;26080;42.264;24.536;2023-05-10T03:35:39;99764.16;;;8.85;100.00
39793;BME280;26080;42.264;24.536;2023-05-10T03:38:04;99782.25;;;8.91;100.00
39793;BME280;26080;42.264;24.536;2023-05-10T03:40:30;99785.56;;;8.96;100.00
39793;BME280;26080;42.264;24.536;2023-05-10T03:42:57;99775.06;;;8.98;100.00
39793;BME280;26080;42.264;24.536;2023-05-10T03:45:23;99779.31;;;9.00;100.00
39793;BME280;26080;42.264;24.536;2023-05-10T03:47:48;99755.31;;;8.89;100.00
39793;BME280;26080;42.264;24.536;2023-05-10T03:50:14;99780.84;;;9.07;100.00
39793;BME280;26080;42.264;24.536;2023-05-10T03:52:40;99784.44;;;9.03;100.00
39793;BME280;26080;42.264;24.536;2023-05-10T03:55:06;99788.75;;;9.04;100.00
39793;BME280;26080;42.264;24.536;2023-05-10T03:57:31;99791.28;;;9.07;100.00
39793;BME280;26080;42.264;24.536;2023-05-10T03:59:57;99792.88;;;9.11;100.00
39793;BME280;26080;42.264;24.536;2023-05-10T04:02:22;99790.88;;;9.19;100.00
39793;BME280;26080;42.264;24.536;2023-05-10T04:04:48;99792.25;;;9.30;100.00
39793;BME280;26080;42.264;24.536;2023-05-10T04:07:13;99797.47;;;9.30;100.00
39793;BME280;26080;42.264;24.536;2023-05-10T04:09:39;99803.38;;;9.36;100.00
39793;BME280;26080;42.264;24.536;2023-05-10T04:12:04;99800.47;;;9.44;100.00
39793;BME280;26080;42.264;24.536;2023-05-10T04:14:30;99797.59;;;9.52;100.00
39793;BME280;26080;42.264;24.536;2023-05-10T04:16:56;99803.25;;;9.64;100.00
39793;BME280;26080;42.264;24.536;2023-05-10T04:19:21;99802.09;;;9.71;100.00
39793;BME280;26080;42.264;24.536;2023-05-10T04:21:46;99792.25;;;9.79;100.00
39793;BME280;26080;42.264;24.536;2023-05-10T04:24:12;99800.75;;;9.85;100.00
39793;BME280;26080;42.264;24.536;2023-05-10T04:26:37;99798.84;;;9.90;100.00
39793;BME280;26080;42.264;24.536;2023-05-10T04:29:03;99803.22;;;9.89;100.00
39793;BME280;26080;42.264;24.536;2023-05-10T04:31:28;99803.84;;;9.96;100.00
39793;BME280;26080;42.264;24.536;2023-05-10T04:33:54;99772.84;;;9.85;100.00
39793;BME280;26080;42.264;24.536;2023-05-10T04:36:20;99811.06;;;10.13;100.00
39793;BME280;26080;42.264;24.536;2023-05-10T04:38:46;99785.88;;;10.10;100.00
39793;BME280;26080;42.264;24.536;2023-05-10T04:41:11;99812.41;;;10.24;100.00
39793;BME280;26080;42.264;24.536;2023-05-10T04:43:38;99815.72;;;10.29;100.00
39793;BME280;26080;42.264;24.536;2023-05-10T04:46:04;99811.88;;;10.38;100.00
39793;BME280;26080;42.264;24.536;2023-05-10T04:48:30;99802.16;;;10.42;100.00
39793;BME280;26080;42.264;24.536;2023-05-10T04:50:55;99806.88;;;10.55;100.00
39793;BME280;26080;42.264;24.536;2023-05-10T04:53:21;99801.97;;;10.68;100.00
39793;BME280;26080;42.264;24.536;2023-05-10T04:55:47;99804.09;;;10.80;100.00
39793;BME280;26080;42.264;24.536;2023-05-10T04:58:13;99812.31;;;10.93;100.00
39793;BME280;26080;42.264;24.536;2023-05-10T05:00:38;99779.03;;;10.75;100.00
39793;BME280;26080;42.264;24.536;2023-05-10T05:03:04;99809.69;;;11.15;100.00
39793;BME280;26080;42.264;24.536;2023-05-10T05:05:30;99811.47;;;11.14;100.00
39793;BME280;26080;42.264;24.536;2023-05-10T05:07:55;99810.34;;;11.20;100.00
39793;BME280;26080;42.264;24.536;2023-05-10T05:10:21;99814.56;;;11.24;100.00
39793;BME280;26080;42.264;24.536;2023-05-10T05:12:46;99812.22;;;11.38;100.00
39793;BME280;26080;42.264;24.536;2023-05-10T05:15:12;99789.84;;;11.30;100.00
39793;BME280;26080;42.264;24.536;2023-05-10T05:17:37;99800.25;;;11.31;100.00
39793;BME280;26080;42.264;24.536;2023-05-10T05:20:03;99814.88;;;11.37;100.00
39793;BME280;26080;42.264;24.536;2023-05-10T05:22:28;99816.63;;;11.36;100.00
39793;BME280;26080;42.264;24.536;2023-05-10T05:24:55;99820.94;;;11.39;100.00
39793;BME280;26080;42.264;24.536;2023-05-10T05:27:20;99803.03;;;11.28;100.00
39793;BME280;26080;42.264;24.536;2023-05-10T05:29:52;99818.31;;;11.39;100.00
39793;BME280;26080;42.264;24.536;2023-05-10T05:32:17;99815.47;;;11.43;100.00
39793;BME280;26080;42.264;24.536;2023-05-10T05:34:46;99822.53;;;11.62;100.00
39793;BME280;26080;42.264;24.536;2023-05-10T05:37:15;99794.75;;;11.57;100.00
39793;BME280;26080;42.264;24.536;2023-05-10T05:39:44;99813.25;;;11.95;100.00
39793;BME280;26080;42.264;24.536;2023-05-10T05:42:11;99826.03;;;12.22;100.00
39793;BME280;26080;42.264;24.536;2023-05-10T05:44:37;99826.03;;;12.22;100.00
39793;BME280;26080;42.264;24.536;2023-05-10T05:47:03;99826.13;;;12.39;100.00
39793;BME280;26080;42.264;24.536;2023-05-10T05:49:29;99809.28;;;12.24;100.00
39793;BME280;26080;42.264;24.536;2023-05-10T05:51:58;99809.56;;;12.37;100.00
39793;BME280;26080;42.264;24.536;2023-05-10T05:54:24;99836.06;;;12.51;100.00
39793;BME280;26080;42.264;24.536;2023-05-10T05:56:50;99840.09;;;12.39;100.00
39793;BME280;26080;42.264;24.536;2023-05-10T05:59:15;99845.50;;;12.55;100.00
39793;BME280;26080;42.264;24.536;2023-05-10T06:01:41;99843.94;;;12.51;100.00
39793;BME280;26080;42.264;24.536;2023-05-10T06:04:06;99852.59;;;12.53;100.00
39793;BME280;26080;42.264;24.536;2023-05-10T06:06:32;99850.31;;;12.45;100.00
39793;BME280;26080;42.264;24.536;2023-05-10T06:08:58;99847.53;;;12.30;100.00
39793;BME280;26080;42.264;24.536;2023-05-10T06:11:23;99830.56;;;12.18;100.00
39793;BME280;26080;42.264;24.536;2023-05-10T06:13:49;99841.81;;;12.22;100.00
39793;BME280;26080;42.264;24.536;2023-05-10T06:16:14;99842.91;;;12.16;100.00
39793;BME280;26080;42.264;24.536;2023-05-10T06:18:39;99851.75;;;12.34;100.00
39793;BME280;26080;42.264;24.536;2023-05-10T06:21:05;99849.75;;;12.20;100.00
39793;BME280;26080;42.264;24.536;2023-05-10T06:23:33;99844.63;;;12.17;100.00
39793;BME280;26080;42.264;24.536;2023-05-10T06:25:59;99855.13;;;12.17;100.00
39793;BME280;26080;42.264;24.536;2023-05-10T06:28:25;99853.41;;;11.97;100.00
39793;BME280;26080;42.264;24.536;2023-05-10T06:30:50;99848.53;;;12.08;100.00
39793;BME280;26080;42.264;24.536;2023-05-10T06:33:15;99854.81;;;12.04;100.00
39793;BME280;26080;42.264;24.536;2023-05-10T06:35:41;99850.31;;;12.08;100.00
39793;BME280;26080;42.264;24.536;2023-05-10T06:38:06;99857.75;;;12.17;100.00
39793;BME280;26080;42.264;24.536;2023-05-10T06:40:32;99855.25;;;12.14;100.00
39793;BME280;26080;42.264;24.536;2023-05-10T06:42:58;99851.09;;;12.29;100.00
39793;BME280;26080;42.264;24.536;2023-05-10T06:45:23;99827.16;;;12.16;100.00
39793;BME280;26080;42.264;24.536;2023-05-10T06:47:48;99815.44;;;12.04;100.00
39793;BME280;26080;42.264;24.536;2023-05-10T06:50:14;99852.00;;;12.46;100.00
39793;BME280;26080;42.264;24.536;2023-05-10T06:52:39;99833.28;;;12.35;100.00
39793;BME280;26080;42.264;24.536;2023-05-10T06:55:05;99856.44;;;12.65;100.00
39793;BME280;26080;42.264;24.536;2023-05-10T06:57:31;99837.53;;;12.75;100.00
39793;BME280;26080;42.264;24.536;2023-05-10T06:59:58;99849.97;;;13.08;100.00
39793;BME280;26080;42.264;24.536;2023-05-10T07:02:23;99857.63;;;13.13;100.00
39793;BME280;26080;42.264;24.536;2023-05-10T07:04:48;99855.75;;;13.33;100.00
39793;BME280;26080;42.264;24.536;2023-05-10T07:07:14;99825.91;;;13.34;100.00
39793;BME280;26080;42.264;24.536;2023-05-10T07:09:40;99856.97;;;13.26;100.00
39793;BME280;26080;42.264;24.536;2023-05-10T07:12:05;99847.22;;;13.28;100.00
39793;BME280;26080;42.264;24.536;2023-05-10T07:14:31;99854.06;;;13.32;100.00
39793;BME280;26080;42.264;24.536;2023-05-10T07:16:56;99857.09;;;13.06;100.00
39793;BME280;26080;42.264;24.536;2023-05-10T07:19:22;99856.25;;;12.87;100.00
39793;BME280;26080;42.264;24.536;2023-05-10T07:21:47;99850.59;;;13.13;100.00
39793;BME280;26080;42.264;24.536;2023-05-10T07:24:13;99857.22;;;13.22;100.00
39793;BME280;26080;42.264;24.536;2023-05-10T07:26:38;99871.13;;;13.24;100.00
39793;BME280;26080;42.264;24.536;2023-05-10T07:29:03;99863.16;;;12.89;100.00
39793;BME280;26080;42.264;24.536;2023-05-10T07:31:29;99866.22;;;12.80;100.00
39793;BME280;26080;42.264;24.536;2023-05-10T07:33:54;99860.88;;;12.82;100.00
39793;BME280;26080;42.264;24.536;2023-05-10T07:36:20;99860.06;;;12.98;100.00
39793;BME280;26080;42.264;24.536;2023-05-10T07:38:45;99862.31;;;13.25;100.00
39793;BME280;26080;42.264;24.536;2023-05-10T07:41:14;99859.78;;;13.04;100.00
39793;BME280;26080;42.264;24.536;2023-05-10T07:43:39;99845.19;;;12.80;100.00
39793;BME280;26080;42.264;24.536;2023-05-10T07:46:05;99868.50;;;12.69;100.00
39793;BME280;26080;42.264;24.536;2023-05-10T07:48:30;99870.41;;;12.84;100.00
39793;BME280;26080;42.264;24.536;2023-05-10T07:50:56;99878.50;;;12.80;100.00
39793;BME280;26080;42.264;24.536;2023-05-10T07:53:21;99860.47;;;13.08;100.00
39793;BME280;26080;42.264;24.536;2023-05-10T07:55:50;99874.53;;;13.26;100.00
39793;BME280;26080;42.264;24.536;2023-05-10T07:58:17;99877.25;;;13.24;100.00
39793;BME280;26080;42.264;24.536;2023-05-10T08:00:42;99877.78;;;12.95;100.00
39793;BME280;26080;42.264;24.536;2023-05-10T08:03:08;99873.72;;;13.07;100.00
39793;BME280;26080;42.264;24.536;2023-05-10T08:05:33;99874.00;;;13.37;100.00
39793;BME280;26080;42.264;24.536;2023-05-10T08:07:59;99876.44;;;13.58;100.00
39793;BME280;26080;42.264;24.536;2023-05-10T08:10:24;99885.88;;;13.45;100.00
39793;BME280;26080;42.264;24.536;2023-05-10T08:12:50;99869.00;;;13.49;100.00
39793;BME280;26080;42.264;24.536;2023-05-10T08:15:16;99889.97;;;13.68;100.00
39793;BME280;26080;42.264;24.536;2023-05-10T08:17:41;99896.69;;;13.56;100.00
39793;BME280;26080;42.264;24.536;2023-05-10T08:20:08;99875.25;;;13.64;100.00
39793;BME280;26080;42.264;24.536;2023-05-10T08:22:34;99891.50;;;13.89;100.00
39793;BME280;26080;42.264;24.536;2023-05-10T08:25:00;99892.88;;;13.97;100.00
39793;BME280;26080;42.264;24.536;2023-05-10T08:27:25;99900.41;;;14.04;100.00
39793;BME280;26080;42.264;24.536;2023-05-10T08:29:51;99893.13;;;13.92;100.00
39793;BME280;26080;42.264;24.536;2023-05-10T08:32:17;99891.19;;;13.96;100.00
39793;BME280;26080;42.264;24.536;2023-05-10T08:34:42;99885.13;;;14.11;100.00
39793;BME280;26080;42.264;24.536;2023-05-10T08:37:08;99891.72;;;14.35;100.00
39793;BME280;26080;42.264;24.536;2023-05-10T08:39:34;99897.00;;;14.35;100.00
39793;BME280;26080;42.264;24.536;2023-05-10T08:42:02;99904.81;;;14.37;100.00
39793;BME280;26080;42.264;24.536;2023-05-10T08:44:32;99898.53;;;14.57;100.00
39793;BME280;26080;42.264;24.536;2023-05-10T08:46:59;99884.41;;;14.58;100.00
39793;BME280;26080;42.264;24.536;2023-05-10T08:49:31;99888.84;;;14.89;100.00
39793;BME280;26080;42.264;24.536;2023-05-10T08:51:57;99887.53;;;14.48;100.00
39793;BME280;26080;42.264;24.536;2023-05-10T08:54:24;99867.66;;;14.59;100.00
39793;BME280;26080;42.264;24.536;2023-05-10T08:56:50;99889.19;;;14.98;100.00
39793;BME280;26080;42.264;24.536;2023-05-10T08:59:16;99897.09;;;14.98;100.00
39793;BME280;26080;42.264;24.536;2023-05-10T09:01:43;99883.84;;;14.68;100.00
39793;BME280;26080;42.264;24.536;2023-05-10T09:04:10;99877.50;;;15.02;100.00
39793;BME280;26080;42.264;24.536;2023-05-10T09:06:36;99872.53;;;15.28;100.00
39793;BME280;26080;42.264;24.536;2023-05-10T09:09:02;99876.94;;;15.43;100.00
39793;BME280;26080;42.264;24.536;2023-05-10T09:11:28;99872.13;;;15.35;95.77
39793;BME280;26080;42.264;24.536;2023-05-10T09:13:55;99886.53;;;15.60;97.71
39793;BME280;26080;42.264;24.536;2023-05-10T09:16:21;99869.25;;;15.54;99.98
39793;BME280;26080;42.264;24.536;2023-05-10T09:18:47;99868.78;;;15.78;91.52
39793;BME280;26080;42.264;24.536;2023-05-10T09:21:13;99847.81;;;15.89;93.96
39793;BME280;26080;42.264;24.536;2023-05-10T09:23:43;99866.53;;;16.14;96.51
39793;BME280;26080;42.264;24.536;2023-05-10T09:26:08;99870.13;;;16.27;91.04
39793;BME280;26080;42.264;24.536;2023-05-10T09:28:50;99859.00;;;16.37;91.49
39793;BME280;26080;42.264;24.536;2023-05-10T09:31:15;99829.72;;;16.40;93.80
39793;BME280;26080;42.264;24.536;2023-05-10T09:33:48;99855.25;;;16.82;86.89
39793;BME280;26080;42.264;24.536;2023-05-10T09:36:14;99850.06;;;16.66;86.45
39793;BME280;26080;42.264;24.536;2023-05-10T09:38:47;99836.22;;;16.63;90.82
39793;BME280;26080;42.264;24.536;2023-05-10T09:41:17;99844.50;;;16.71;90.07
39793;BME280;26080;42.264;24.536;2023-05-10T09:43:43;99830.41;;;16.84;86.04
39793;BME280;26080;42.264;24.536;2023-05-10T09:46:09;99827.22;;;16.65;88.72
39793;BME280;26080;42.264;24.536;2023-05-10T09:48:44;99828.53;;;16.58;84.66
39793;BME280;26080;42.264;24.536;2023-05-10T09:51:18;99827.91;;;16.69;91.93
39793;BME280;26080;42.264;24.536;2023-05-10T09:53:44;99827.78;;;16.70;85.96
39793;BME280;26080;42.264;24.536;2023-05-10T09:56:09;99808.44;;;16.70;91.24
39793;BME280;26080;42.264;24.536;2023-05-10T09:58:37;99811.09;;;16.70;90.71
39793;BME280;26080;42.264;24.536;2023-05-10T10:01:10;99817.78;;;16.61;85.57
39793;BME280;26080;42.264;24.536;2023-05-10T10:03:41;99815.53;;;16.69;83.74
39793;BME280;26080;42.264;24.536;2023-05-10T10:06:07;99794.94;;;16.60;92.48
39793;BME280;26080;42.264;24.536;2023-05-10T10:08:34;99810.91;;;16.73;88.63
39793;BME280;26080;42.264;24.536;2023-05-10T10:10:59;99815.44;;;16.98;87.82
39793;BME280;26080;42.264;24.536;2023-05-10T10:13:25;99824.34;;;16.27;82.50
39793;BME280;26080;42.264;24.536;2023-05-10T10:15:52;99817.66;;;16.07;83.75
39793;BME280;26080;42.264;24.536;2023-05-10T10:18:17;99824.34;;;16.13;86.38
39793;BME280;26080;42.264;24.536;2023-05-10T10:20:44;99818.41;;;15.95;80.82
39793;BME280;26080;42.264;24.536;2023-05-10T10:23:10;99822.56;;;15.85;85.79
39793;BME280;26080;42.264;24.536;2023-05-10T10:25:37;99819.56;;;16.19;82.98
39793;BME280;26080;42.264;24.536;2023-05-10T10:28:19;99796.53;;;16.21;77.99
39793;BME280;26080;42.264;24.536;2023-05-10T10:30:48;99805.94;;;16.25;81.80
39793;BME280;26080;42.264;24.536;2023-05-10T10:36:31;99779.84;;;16.07;81.40
39793;BME280;26080;42.264;24.536;2023-05-10T10:39:01;99800.28;;;16.32;83.82
39793;BME280;26080;42.264;24.536;2023-05-10T10:41:39;99794.19;;;16.44;83.99
39793;BME280;26080;42.264;24.536;2023-05-10T10:49:28;99805.47;;;15.46;82.65
39793;BME280;26080;42.264;24.536;2023-05-10T10:52:17;99795.03;;;15.59;89.61
39793;BME280;26080;42.264;24.536;2023-05-10T10:54:53;99790.66;;;15.88;88.82
39793;BME280;26080;42.264;24.536;2023-05-10T10:57:19;99795.69;;;16.07;83.21
39793;BME280;26080;42.264;24.536;2023-05-10T10:59:47;99786.72;;;16.09;80.60
39793;BME280;26080;42.264;24.536;2023-05-10T11:02:45;99784.44;;;16.32;82.17
39793;BME280;26080;42.264;24.536;2023-05-10T11:08:07;99782.53;;;16.34;79.11
39793;BME280;26080;42.264;24.536;2023-05-10T11:10:33;99789.66;;;16.60;86.64
39793;BME280;26080;42.264;24.536;2023-05-10T11:13:06;99792.28;;;16.74;82.79
39793;BME280;26080;42.264;24.536;2023-05-10T11:15:37;99781.19;;;16.82;84.02
39793;BME280;26080;42.264;24.536;2023-05-10T11:18:27;99777.78;;;17.07;76.94
39793;BME280;26080;42.264;24.536;2023-05-10T11:21:00;99770.41;;;16.85;78.54
39793;BME280;26080;42.264;24.536;2023-05-10T11:23:32;99770.78;;;16.52;74.57
39793;BME280;26080;42.264;24.536;2023-05-10T11:25:59;99780.06;;;16.45;82.73
39793;BME280;26080;42.264;24.536;2023-05-10T11:28:26;99779.25;;;16.57;76.24
39793;BME280;26080;42.264;24.536;2023-05-10T11:30:52;99770.00;;;16.64;74.22
39793;BME280;26080;42.264;24.536;2023-05-10T11:33:18;99764.69;;;17.18;82.43
39793;BME280;26080;42.264;24.536;2023-05-10T11:35:44;99776.19;;;17.57;74.49
39793;BME280;26080;42.264;24.536;2023-05-10T11:38:11;99744.41;;;17.57;71.52
39793;BME280;26080;42.264;24.536;2023-05-10T11:40:38;99745.28;;;17.83;69.64
39793;BME280;26080;42.264;24.536;2023-05-10T11:43:04;99751.41;;;17.96;68.39
39793;BME280;26080;42.264;24.536;2023-05-10T11:45:34;99749.38;;;18.12;68.81
39793;BME280;26080;42.264;24.536;2023-05-10T11:48:00;99738.34;;;18.05;64.24
39793;BME280;26080;42.264;24.536;2023-05-10T11:50:27;99738.66;;;18.14;65.75
39793;BME280;26080;42.264;24.536;2023-05-10T11:52:56;99742.06;;;17.90;68.80
39793;BME280;26080;42.264;24.536;2023-05-10T11:55:22;99732.09;;;17.30;67.18
39793;BME280;26080;42.264;24.536;2023-05-10T11:57:53;99721.50;;;17.30;67.68
39793;BME280;26080;42.264;24.536;2023-05-10T12:00:19;99741.53;;;17.47;68.67
39793;BME280;26080;42.264;24.536;2023-05-10T12:02:45;99740.13;;;17.67;66.25
39793;BME280;26080;42.264;24.536;2023-05-10T12:05:11;99734.34;;;17.87;69.70
39793;BME280;26080;42.264;24.536;2023-05-10T12:07:36;99703.19;;;17.53;66.83
39793;BME280;26080;42.264;24.536;2023-05-10T12:12:47;99723.75;;;17.62;71.95
39793;BME280;26080;42.264;24.536;2023-05-10T12:15:23;99724.47;;;17.89;67.45
39793;BME280;26080;42.264;24.536;2023-05-10T12:17:50;99696.44;;;18.23;68.21
39793;BME280;26080;42.264;24.536;2023-05-10T12:20:23;99707.81;;;18.13;66.55
39793;BME280;26080;42.264;24.536;2023-05-10T12:22:54;99709.91;;;17.71;67.58
39793;BME280;26080;42.264;24.536;2023-05-10T12:25:21;99715.38;;;17.42;67.34
39793;BME280;26080;42.264;24.536;2023-05-10T12:27:51;99713.44;;;17.19;67.05
39793;BME280;26080;42.264;24.536;2023-05-10T12:30:24;99717.06;;;17.31;69.69
39793;BME280;26080;42.264;24.536;2023-05-10T12:32:50;99711.75;;;17.18;67.41
39793;BME280;26080;42.264;24.536;2023-05-10T12:35:16;99711.16;;;16.75;69.31
39793;BME280;26080;42.264;24.536;2023-05-10T12:37:43;99714.75;;;16.74;69.54
39793;BME280;26080;42.264;24.536;2023-05-10T12:40:10;99698.91;;;16.86;71.73
39793;BME280;26080;42.264;24.536;2023-05-10T12:42:36;99696.50;;;17.09;69.02
39793;BME280;26080;42.264;24.536;2023-05-10T12:45:03;99686.53;;;17.12;73.78
39793;BME280;26080;42.264;24.536;2023-05-10T12:47:29;99678.72;;;17.36;72.01
39793;BME280;26080;42.264;24.536;2023-05-10T12:49:55;99688.06;;;17.55;71.45
39793;BME280;26080;42.264;24.536;2023-05-10T12:52:20;99682.97;;;17.13;71.43
39793;BME280;26080;42.264;24.536;2023-05-10T12:54:46;99690.97;;;16.86;75.10
39793;BME280;26080;42.264;24.536;2023-05-10T12:57:13;99676.97;;;16.84;75.10
39793;BME280;26080;42.264;24.536;2023-05-10T12:59:38;99692.25;;;16.94;73.50
39793;BME280;26080;42.264;24.536;2023-05-10T13:02:04;99679.25;;;17.16;73.74
39793;BME280;26080;42.264;24.536;2023-05-10T13:04:29;99674.09;;;17.27;72.43
39793;BME280;26080;42.264;24.536;2023-05-10T13:06:54;99672.47;;;17.37;72.55
39793;BME280;26080;42.264;24.536;2023-05-10T13:09:26;99676.41;;;17.19;69.56
39793;BME280;26080;42.264;24.536;2023-05-10T13:11:53;99670.88;;;17.09;71.56